createdAt,value
2024-03-04T00:03:30.015Z,49.60
2024-03-04T00:08:33.129Z,53.09
2024-03-04T00:13:34.743Z,50.39
2024-03-04T00:18:36.967Z,52.98
2024-03-04T00:23:38.549Z,48.07
2024-03-04T00:28:40.255Z,48.70
2024-03-04T00:33:41.950Z,47.18
2024-03-04T00:38:43.698Z,47.71
2024-03-04T00:43:45.279Z,51.45
2024-03-04T00:48:48.044Z,47.41
2024-03-04T00:53:49.680Z,46.46
2024-03-04T00:58:51.310Z,46.51
2024-03-04T01:03:52.912Z,46.66
2024-03-04T01:08:55.332Z,47.29
2024-03-04T01:13:56.928Z,47.24
2024-03-04T01:18:59.444Z,46.75
2024-03-04T01:24:01.146Z,46.01
2024-03-04T01:29:04.273Z,45.72
2024-03-04T01:34:05.949Z,45.79
2024-03-04T01:39:08.958Z,45.85
2024-03-04T01:44:12.315Z,45.28
2024-03-04T01:49:14.440Z,45.63
2024-03-04T01:54:16.318Z,46.58
2024-03-04T01:59:19.468Z,45.89
2024-03-04T02:04:21.738Z,45.64
2024-03-04T02:09:27.419Z,46.15
2024-03-04T02:14:29.206Z,46.83
2024-03-04T02:19:32.673Z,47.19
2024-03-04T02:24:34.504Z,46.35
2024-03-04T02:29:36.135Z,48.11
2024-03-04T02:34:39.376Z,47.34
2024-03-04T02:39:41.979Z,46.58
2024-03-04T02:44:43.635Z,47.00
2024-03-04T02:49:45.333Z,48.08
2024-03-04T02:54:46.939Z,47.18
2024-03-04T02:59:48.601Z,46.16
2024-03-04T03:04:50.240Z,45.44
2024-03-04T03:09:51.834Z,47.33
2024-03-04T03:14:53.435Z,44.36
2024-03-04T03:19:55.064Z,46.26
2024-03-04T03:24:56.648Z,45.91
2024-03-04T03:29:58.260Z,44.67
2024-03-04T03:34:59.862Z,45.94
2024-03-04T03:40:02.271Z,46.86
2024-03-04T03:45:04.354Z,45.34
2024-03-04T03:50:06.990Z,45.55
2024-03-04T03:55:08.716Z,44.27
2024-03-04T04:00:11.804Z,45.30
2024-03-04T04:05:13.411Z,44.46
2024-03-04T04:10:18.310Z,48.68
2024-03-04T04:15:20.009Z,46.90
2024-03-04T04:20:21.598Z,48.84
2024-03-04T04:25:23.224Z,46.27
2024-03-04T04:30:24.854Z,47.52
2024-03-04T04:35:26.503Z,46.39
2024-03-04T04:40:28.173Z,44.40
2024-03-04T04:45:29.883Z,44.10
2024-03-04T04:50:31.510Z,45.22
2024-03-04T04:55:33.203Z,46.21
2024-03-04T05:00:34.937Z,45.87
2024-03-04T05:05:36.840Z,46.84
2024-03-04T05:10:40.691Z,45.58
2024-03-04T05:15:43.650Z,44.40
2024-03-04T05:20:54.338Z,45.77
2024-03-04T05:25:59.240Z,44.08
2024-03-04T05:31:01.597Z,44.01
2024-03-04T05:36:06.103Z,43.28
2024-03-04T05:41:07.767Z,47.37
2024-03-04T05:46:09.701Z,45.49
2024-03-04T05:51:11.310Z,46.73
2024-03-04T05:56:15.896Z,46.18
2024-03-04T06:01:18.089Z,45.52
2024-03-04T06:06:19.740Z,45.87
2024-03-04T06:11:21.410Z,45.69
2024-03-04T06:16:23.427Z,43.58
2024-03-04T06:21:25.124Z,42.86
2024-03-04T06:26:26.745Z,44.71
2024-03-04T06:31:28.425Z,43.05
2024-03-04T06:36:30.057Z,45.66
2024-03-04T06:41:31.646Z,44.16
2024-03-04T06:46:34.441Z,46.37
2024-03-04T06:51:36.821Z,46.23
2024-03-04T06:56:38.465Z,45.67
2024-03-04T07:01:40.161Z,46.74
2024-03-04T07:06:41.828Z,47.43
2024-03-04T07:11:43.602Z,43.94
2024-03-04T07:16:45.295Z,42.53
2024-03-04T07:21:46.973Z,43.34
2024-03-04T07:26:48.549Z,43.51
2024-03-04T07:31:51.093Z,43.59
2024-03-04T07:36:52.965Z,44.96
2024-03-04T07:41:54.575Z,45.06
2024-03-04T07:46:56.282Z,45.95
2024-03-04T07:51:58.903Z,43.54
2024-03-04T07:57:09.777Z,45.20
2024-03-04T08:02:15.625Z,45.78
2024-03-04T08:07:17.729Z,45.35
2024-03-04T08:12:19.424Z,47.32
2024-03-04T08:17:23.980Z,44.53
2024-03-04T08:22:28.553Z,44.75
2024-03-04T08:27:30.198Z,47.28
2024-03-04T08:32:31.842Z,46.22
2024-03-04T08:37:33.419Z,44.39
2024-03-04T08:42:38.886Z,45.17
2024-03-04T08:47:40.664Z,45.35
2024-03-04T08:52:42.576Z,45.38
2024-03-04T08:57:44.227Z,48.18
2024-03-04T09:02:46.118Z,45.64
2024-03-04T09:07:47.842Z,44.57
2024-03-04T09:12:49.877Z,47.99
2024-03-04T09:17:51.667Z,48.88
2024-03-04T09:22:54.297Z,47.06
2024-03-04T09:27:55.973Z,48.39
2024-03-04T09:32:57.567Z,49.39
2024-03-04T09:37:59.159Z,48.60
2024-03-04T09:43:00.923Z,48.56
2024-03-04T09:48:03.033Z,49.87
2024-03-04T09:53:08.144Z,47.49
2024-03-04T09:58:09.867Z,47.89
2024-03-04T10:03:12.165Z,46.64
2024-03-04T10:08:13.877Z,48.87
2024-03-04T10:13:16.868Z,48.49
2024-03-04T10:18:18.717Z,50.03
2024-03-04T10:23:20.472Z,51.23
2024-03-04T10:28:37.213Z,47.79
2024-03-04T10:33:40.861Z,49.47
2024-03-04T10:38:47.943Z,48.96
2024-03-04T10:43:51.659Z,49.68
2024-03-04T10:48:54.443Z,48.20
2024-03-04T10:53:56.108Z,46.70
2024-03-04T10:59:02.858Z,49.31
2024-03-04T11:06:25.245Z,52.40
2024-03-04T11:11:39.865Z,51.96
2024-03-04T11:17:06.504Z,49.76
2024-03-04T11:22:08.904Z,50.39
2024-03-04T11:27:11.325Z,49.79
2024-03-04T11:32:13.221Z,52.76
2024-03-04T11:37:18.082Z,52.46
2024-03-04T11:42:36.352Z,51.00
2024-03-04T11:47:38.111Z,49.27
2024-03-04T11:52:39.976Z,49.10
2024-03-04T11:57:41.694Z,51.14
2024-03-04T12:02:44.125Z,48.81
2024-03-04T12:07:46.128Z,50.50
2024-03-04T12:12:48.623Z,49.47
2024-03-04T12:17:50.635Z,48.93
2024-03-04T12:22:55.152Z,51.33
2024-03-04T12:27:57.340Z,51.75
2024-03-04T12:33:02.782Z,50.10
2024-03-04T12:38:04.639Z,49.82
2024-03-04T12:43:06.958Z,49.61
2024-03-04T12:48:10.958Z,49.74
2024-03-04T12:53:15.463Z,48.05
2024-03-04T12:58:17.346Z,48.72
2024-03-04T13:03:19.104Z,51.04
2024-03-04T13:08:20.988Z,47.14
2024-03-04T13:13:22.715Z,47.96
2024-03-04T13:18:24.503Z,47.21
2024-03-04T13:23:26.765Z,46.27
2024-03-04T13:28:28.448Z,50.72
2024-03-04T13:33:31.620Z,51.96
2024-03-04T13:38:33.798Z,49.36
2024-03-04T13:43:35.527Z,51.13
2024-03-04T13:48:37.242Z,50.08
2024-03-04T13:53:38.877Z,51.87
2024-03-04T13:58:40.597Z,52.21
2024-03-04T14:03:42.354Z,47.83
2024-03-04T14:08:44.050Z,47.70
2024-03-04T14:13:45.765Z,49.45
2024-03-04T14:18:47.786Z,49.35
2024-03-04T14:23:49.495Z,48.23
2024-03-04T14:28:51.360Z,50.06
2024-03-04T14:33:54.242Z,46.24
2024-03-04T14:38:55.876Z,48.82
2024-03-04T14:43:57.544Z,47.37
2024-03-04T14:48:59.254Z,45.02
2024-03-04T14:54:00.974Z,48.49
2024-03-04T14:59:02.603Z,48.71
2024-03-04T15:05:24.219Z,51.44
2024-03-04T15:10:26.614Z,52.03
2024-03-04T15:15:29.979Z,53.91
2024-03-04T15:20:31.649Z,54.35
2024-03-04T15:25:33.406Z,54.01
2024-03-04T15:30:36.073Z,52.79
2024-03-04T15:35:38.927Z,53.18
2024-03-04T15:40:42.981Z,50.55
2024-03-04T15:45:46.337Z,51.32
2024-03-04T15:50:48.802Z,53.85
2024-03-04T15:55:50.648Z,53.76
2024-03-04T16:00:53.084Z,52.37
2024-03-04T16:05:54.851Z,50.60
2024-03-04T16:10:56.716Z,49.66
2024-03-04T16:15:59.684Z,49.03
2024-03-04T16:21:02.454Z,50.87
2024-03-04T16:26:05.207Z,51.97
2024-03-04T16:31:10.935Z,52.45
2024-03-04T16:36:13.782Z,51.01
2024-03-04T16:41:22.722Z,49.79
2024-03-04T16:46:24.387Z,50.80
2024-03-04T16:51:26.151Z,50.89
2024-03-04T16:56:27.952Z,49.09
2024-03-04T17:01:33.298Z,47.40
2024-03-04T17:06:38.317Z,49.99
2024-03-04T17:11:40.258Z,49.03
2024-03-04T17:16:45.593Z,48.35
2024-03-04T17:21:47.379Z,48.00
2024-03-04T17:26:49.021Z,49.41
2024-03-04T17:31:51.026Z,51.09
2024-03-04T17:36:52.912Z,50.94
2024-03-04T17:41:54.836Z,48.46
2024-03-04T17:46:56.670Z,48.55
2024-03-04T17:51:59.388Z,49.37
2024-03-04T17:57:01.179Z,49.21
2024-03-04T18:02:03.606Z,48.80
2024-03-04T18:07:06.348Z,49.28
2024-03-04T18:12:08.352Z,47.91
2024-03-04T18:17:10.045Z,46.65
2024-03-04T18:22:11.759Z,51.81
2024-03-04T18:27:13.431Z,52.60
2024-03-04T18:32:15.109Z,51.44
2024-03-04T18:37:16.793Z,49.99
2024-03-04T18:42:20.010Z,47.86
2024-03-04T18:47:21.635Z,49.73
2024-03-04T18:52:25.650Z,51.08
2024-03-04T18:57:27.455Z,50.29
2024-03-04T19:02:29.214Z,49.56
2024-03-04T19:07:33.485Z,49.76
2024-03-04T19:12:36.207Z,48.45
2024-03-04T19:17:40.148Z,50.19
2024-03-04T19:22:42.075Z,50.85
2024-03-04T19:27:43.768Z,50.51
2024-03-04T19:32:46.613Z,49.61
2024-03-04T19:37:48.479Z,47.16
2024-03-04T19:42:50.254Z,48.29
2024-03-04T19:47:53.764Z,48.61
2024-03-04T19:52:55.492Z,51.05
2024-03-04T19:57:57.222Z,49.74
2024-03-04T20:02:59.021Z,48.73
2024-03-04T20:08:00.807Z,48.85
2024-03-04T20:13:04.074Z,47.93
2024-03-04T20:18:05.913Z,46.30
2024-03-04T20:23:07.841Z,50.07
2024-03-04T20:28:11.361Z,50.18
2024-03-04T20:33:15.026Z,47.70
2024-03-04T20:38:16.647Z,49.47
2024-03-04T20:43:18.409Z,47.60
2024-03-04T20:48:22.651Z,51.94
2024-03-04T20:53:24.899Z,48.53
2024-03-04T20:58:26.560Z,47.29
2024-03-04T21:03:28.253Z,46.88
2024-03-04T21:08:36.647Z,46.05
2024-03-04T21:13:39.806Z,46.10
2024-03-04T21:18:45.322Z,46.97
2024-03-04T21:29:13.813Z,45.15
2024-03-04T21:34:20.030Z,46.08
2024-03-04T21:39:42.121Z,49.38
2024-03-04T21:44:55.487Z,48.66
2024-03-04T21:50:03.297Z,48.60
2024-03-04T21:55:12.157Z,45.69
2024-03-04T22:00:20.302Z,46.24
2024-03-04T22:05:25.735Z,46.24
2024-03-04T22:10:31.116Z,43.90
2024-03-04T22:15:41.610Z,44.88
2024-03-04T22:20:45.602Z,46.04
2024-03-04T22:25:53.384Z,46.26
2024-03-04T22:30:57.890Z,44.07
2024-03-04T22:36:05.320Z,43.36
2024-03-04T22:41:09.247Z,43.26
2024-03-04T22:46:11.409Z,43.70
2024-03-04T22:51:17.766Z,42.50
2024-03-04T22:56:20.247Z,42.87
2024-03-04T23:01:32.108Z,43.82
2024-03-04T23:06:36.789Z,43.80
2024-03-04T23:11:42.990Z,43.09
2024-03-04T23:16:45.433Z,43.81
2024-03-04T23:21:50.118Z,44.42
2024-03-04T23:26:55.105Z,44.44
2024-03-04T23:31:58.985Z,42.88
2024-03-04T23:37:06.945Z,43.90
2024-03-04T23:42:10.350Z,46.02
2024-03-04T23:47:18.444Z,44.63
2024-03-04T23:52:26.693Z,46.01
2024-03-04T23:57:36.317Z,48.95
